sensor_id;sensor_type;location;lat;lon;timestamp;pressure;altitude;pressure_sealevel;temperature;humidity
35758;BME280;21879;50.110;18.900;2023-04-05T00:05:08;99235.41;;;0.13;51.46
35758;BME280;21879;50.110;18.900;2023-04-05T00:15:35;99230.94;;;-0.09;51.85
35758;BME280;21879;50.110;18.900;2023-04-05T00:26:01;99219.40;;;-0.19;52.05
35758;BME280;21879;50.110;18.900;2023-04-05T00:36:27;99213.63;;;-0.14;52.29
35758;BME280;21879;50.110;18.900;2023-04-05T00:46:53;99206.21;;;-0.08;52.37
35758;BME280;21879;50.110;18.900;2023-04-05T00:57:19;99200.34;;;-0.29;52.29
35758;BME280;21879;50.110;18.900;2023-04-05T01:07:52;99195.45;;;-0.45;52.70
35758;BME280;21879;50.110;18.900;2023-04-05T01:18:18;99187.27;;;-0.36;52.75
35758;BME280;21879;50.110;18.900;2023-04-05T01:39:54;99173.02;;;-0.54;53.06
35758;BME280;21879;50.110;18.900;2023-04-05T01:50:20;99169.40;;;-0.55;53.27
35758;BME280;21879;50.110;18.900;2023-04-05T02:00:46;99173.24;;;-0.49;53.42
35758;BME280;21879;50.110;18.900;2023-04-05T02:11:13;99165.00;;;-0.41;53.84
35758;BME280;21879;50.110;18.900;2023-04-05T02:21:39;99159.13;;;-0.43;53.89
35758;BME280;21879;50.110;18.900;2023-04-05T02:32:06;99150.85;;;-0.49;54.15
35758;BME280;21879;50.110;18.900;2023-04-05T02:42:32;99144.88;;;-0.45;54.43
35758;BME280;21879;50.110;18.900;2023-04-05T02:52:58;99138.95;;;-0.44;54.59
35758;BME280;21879;50.110;18.900;2023-04-05T03:03:24;99137.44;;;-0.39;54.92
35758;BME280;21879;50.110;18.900;2023-04-05T03:13:52;99131.06;;;-0.23;55.47
35758;BME280;21879;50.110;18.900;2023-04-05T03:24:18;99120.83;;;-0.06;55.33
35758;BME280;21879;50.110;18.900;2023-04-05T03:34:44;99123.11;;;-0.04;55.09
35758;BME280;21879;50.110;18.900;2023-04-05T03:45:10;99119.31;;;0.04;55.03
35758;BME280;21879;50.110;18.900;2023-04-05T03:55:45;99123.65;;;0.01;54.95
35758;BME280;21879;50.110;18.900;2023-04-05T04:06:13;99124.58;;;-0.01;55.14
35758;BME280;21879;50.110;18.900;2023-04-05T04:16:43;99125.21;;;-0.07;55.13
35758;BME280;21879;50.110;18.900;2023-04-05T04:27:09;99129.41;;;0.00;55.28
35758;BME280;21879;50.110;18.900;2023-04-05T04:37:35;99126.30;;;0.03;55.20
35758;BME280;21879;50.110;18.900;2023-04-05T04:48:01;99130.02;;;-0.53;55.21
35758;BME280;21879;50.110;18.900;2023-04-05T04:58:28;99133.95;;;-0.82;56.39
35758;BME280;21879;50.110;18.900;2023-04-05T05:08:54;99130.36;;;-0.65;56.98
35758;BME280;21879;50.110;18.900;2023-04-05T05:19:21;99128.27;;;-0.50;56.68
35758;BME280;21879;50.110;18.900;2023-04-05T05:29:46;99132.38;;;-0.58;56.64
35758;BME280;21879;50.110;18.900;2023-04-05T05:40:13;99139.35;;;-0.42;56.97
35758;BME280;21879;50.110;18.900;2023-04-05T05:50:39;99148.80;;;-0.11;57.16
35758;BME280;21879;50.110;18.900;2023-04-05T06:01:06;99146.61;;;0.11;57.25
35758;BME280;21879;50.110;18.900;2023-04-05T06:11:32;99146.14;;;0.44;56.96
35758;BME280;21879;50.110;18.900;2023-04-05T06:22:05;99139.21;;;0.56;56.74
35758;BME280;21879;50.110;18.900;2023-04-05T06:32:30;99142.45;;;0.64;56.70
35758;BME280;21879;50.110;18.900;2023-04-05T06:42:57;99146.08;;;0.79;56.71
35758;BME280;21879;50.110;18.900;2023-04-05T06:53:22;99145.20;;;0.84;56.72
35758;BME280;21879;50.110;18.900;2023-04-05T07:03:50;99146.96;;;1.04;57.05
35758;BME280;21879;50.110;18.900;2023-04-05T07:14:17;99143.81;;;1.52;58.01
35758;BME280;21879;50.110;18.900;2023-04-05T07:24:43;99136.07;;;2.38;57.13
35758;BME280;21879;50.110;18.900;2023-04-05T07:35:10;99140.00;;;3.10;56.34
35758;BME280;21879;50.110;18.900;2023-04-05T07:45:35;99134.86;;;3.77;55.31
35758;BME280;21879;50.110;18.900;2023-04-05T07:56:03;99134.91;;;4.31;53.84
35758;BME280;21879;50.110;18.900;2023-04-05T08:06:29;99127.58;;;4.49;52.40
35758;BME280;21879;50.110;18.900;2023-04-05T08:16:55;99121.77;;;4.84;51.75
35758;BME280;21879;50.110;18.900;2023-04-05T08:27:21;99112.70;;;4.87;49.55
35758;BME280;21879;50.110;18.900;2023-04-05T08:37:47;99105.04;;;4.75;47.15
35758;BME280;21879;50.110;18.900;2023-04-05T08:48:14;99095.45;;;4.79;46.72
35758;BME280;21879;50.110;18.900;2023-04-05T08:58:40;99099.65;;;4.40;45.45
35758;BME280;21879;50.110;18.900;2023-04-05T09:09:14;99099.17;;;4.02;45.49
35758;BME280;21879;50.110;18.900;2023-04-05T09:19:41;99100.34;;;4.08;45.26
35758;BME280;21879;50.110;18.900;2023-04-05T09:30:22;99102.56;;;3.93;44.30
35758;BME280;21879;50.110;18.900;2023-04-05T09:40:49;99090.17;;;4.00;43.98
35758;BME280;21879;50.110;18.900;2023-04-05T09:51:16;99091.42;;;4.10;43.70
35758;BME280;21879;50.110;18.900;2023-04-05T10:01:49;99086.05;;;4.01;43.05
35758;BME280;21879;50.110;18.900;2023-04-05T10:12:23;99072.85;;;4.11;42.68
35758;BME280;21879;50.110;18.900;2023-04-05T10:23:03;99062.83;;;4.41;42.77
35758;BME280;21879;50.110;18.900;2023-04-05T10:33:39;99055.02;;;4.54;42.34
35758;BME280;21879;50.110;18.900;2023-04-05T10:44:06;99054.33;;;4.45;42.80
35758;BME280;21879;50.110;18.900;2023-04-05T10:54:50;99040.23;;;4.74;43.00
35758;BME280;21879;50.110;18.900;2023-04-05T11:05:34;99032.67;;;5.03;43.05
35758;BME280;21879;50.110;18.900;2023-04-05T11:16:10;99034.11;;;4.97;42.16
35758;BME280;21879;50.110;18.900;2023-04-05T11:26:54;99029.45;;;4.86;41.56
35758;BME280;21879;50.110;18.900;2023-04-05T11:37:23;99027.93;;;4.97;41.18
35758;BME280;21879;50.110;18.900;2023-04-05T11:48:10;99027.60;;;4.89;42.02
35758;BME280;21879;50.110;18.900;2023-04-05T11:58:37;99031.77;;;5.00;41.80
35758;BME280;21879;50.110;18.900;2023-04-05T12:09:07;99020.41;;;5.32;41.67
35758;BME280;21879;50.110;18.900;2023-04-05T12:19:33;99014.10;;;5.68;41.79
35758;BME280;21879;50.110;18.900;2023-04-05T12:30:11;99016.98;;;5.66;40.75
35758;BME280;21879;50.110;18.900;2023-04-05T12:40:41;99013.70;;;5.33;40.53
35758;BME280;21879;50.110;18.900;2023-04-05T12:51:14;99008.03;;;5.34;40.13
35758;BME280;21879;50.110;18.900;2023-04-05T13:01:41;98995.13;;;5.57;40.64
35758;BME280;21879;50.110;18.900;2023-04-05T13:12:07;99000.56;;;5.52;39.95
35758;BME280;21879;50.110;18.900;2023-04-05T13:22:33;99006.23;;;5.29;40.20
35758;BME280;21879;50.110;18.900;2023-04-05T13:32:59;99000.00;;;5.27;40.80
35758;BME280;21879;50.110;18.900;2023-04-05T13:43:25;98999.83;;;5.37;41.32
35758;BME280;21879;50.110;18.900;2023-04-05T13:53:51;98992.41;;;5.61;41.46
35758;BME280;21879;50.110;18.900;2023-04-05T14:04:17;98988.47;;;5.74;41.20
35758;BME280;21879;50.110;18.900;2023-04-05T14:14:43;98988.88;;;5.79;40.94
35758;BME280;21879;50.110;18.900;2023-04-05T14:25:10;98989.36;;;5.76;40.40
35758;BME280;21879;50.110;18.900;2023-04-05T14:35:36;98988.95;;;5.71;39.95
35758;BME280;21879;50.110;18.900;2023-04-05T14:46:01;98986.39;;;5.73;40.01
35758;BME280;21879;50.110;18.900;2023-04-05T14:56:28;98987.27;;;5.74;39.95
35758;BME280;21879;50.110;18.900;2023-04-05T15:06:54;98986.17;;;5.70;39.66
35758;BME280;21879;50.110;18.900;2023-04-05T15:17:20;98986.90;;;5.61;39.38
35758;BME280;21879;50.110;18.900;2023-04-05T15:27:46;98990.52;;;5.62;39.96
35758;BME280;21879;50.110;18.900;2023-04-05T15:38:12;98985.44;;;5.68;39.88
35758;BME280;21879;50.110;18.900;2023-04-05T15:48:38;98983.77;;;5.83;39.99
35758;BME280;21879;50.110;18.900;2023-04-05T15:59:03;98986.54;;;5.84;39.53
35758;BME280;21879;50.110;18.900;2023-04-05T16:09:29;98989.23;;;5.78;39.71
35758;BME280;21879;50.110;18.900;2023-04-05T16:19:56;98987.42;;;5.73;40.35
35758;BME280;21879;50.110;18.900;2023-04-05T16:30:21;98991.52;;;5.58;39.61
35758;BME280;21879;50.110;18.900;2023-04-05T16:40:47;99003.43;;;5.36;39.44
35758;BME280;21879;50.110;18.900;2023-04-05T16:51:13;99001.26;;;5.30;39.71
35758;BME280;21879;50.110;18.900;2023-04-05T17:13:23;99015.08;;;5.22;40.55
35758;BME280;21879;50.110;18.900;2023-04-05T17:23:49;99020.63;;;5.24;40.31
35758;BME280;21879;50.110;18.900;2023-04-05T17:34:15;99025.36;;;5.29;40.38
35758;BME280;21879;50.110;18.900;2023-04-05T17:44:41;99032.52;;;5.23;40.20
35758;BME280;21879;50.110;18.900;2023-04-05T17:55:08;99042.48;;;5.11;40.23
35758;BME280;21879;50.110;18.900;2023-04-05T18:05:35;99054.06;;;5.04;40.28
35758;BME280;21879;50.110;18.900;2023-04-05T18:16:01;99059.17;;;4.82;40.36
35758;BME280;21879;50.110;18.900;2023-04-05T18:26:27;99063.83;;;4.65;40.61
35758;BME280;21879;50.110;18.900;2023-04-05T18:36:53;99077.19;;;4.44;40.86
35758;BME280;21879;50.110;18.900;2023-04-05T18:47:18;99079.39;;;4.42;40.92
35758;BME280;21879;50.110;18.900;2023-04-05T18:57:44;99075.57;;;4.49;41.48
35758;BME280;21879;50.110;18.900;2023-04-05T19:08:10;99076.64;;;4.51;42.47
35758;BME280;21879;50.110;18.900;2023-04-05T19:18:36;99077.99;;;4.50;43.73
35758;BME280;21879;50.110;18.900;2023-04-05T19:29:02;99079.08;;;4.35;43.26
35758;BME280;21879;50.110;18.900;2023-04-05T19:39:28;99078.89;;;4.19;42.91
35758;BME280;21879;50.110;18.900;2023-04-05T19:49:55;99078.15;;;4.01;44.31
35758;BME280;21879;50.110;18.900;2023-04-05T20:00:32;99075.44;;;3.88;45.00
35758;BME280;21879;50.110;18.900;2023-04-05T20:10:59;99074.84;;;3.85;44.98
35758;BME280;21879;50.110;18.900;2023-04-05T20:21:25;99072.46;;;3.57;45.27
35758;BME280;21879;50.110;18.900;2023-04-05T20:31:52;99067.30;;;3.35;46.21
35758;BME280;21879;50.110;18.900;2023-04-05T20:42:18;99067.52;;;3.11;46.36
35758;BME280;21879;50.110;18.900;2023-04-05T20:52:43;99061.79;;;3.01;46.92
35758;BME280;21879;50.110;18.900;2023-04-05T21:03:10;99063.07;;;2.78;46.82
35758;BME280;21879;50.110;18.900;2023-04-05T21:13:36;99067.58;;;2.73;47.50
35758;BME280;21879;50.110;18.900;2023-04-05T21:24:02;99061.61;;;2.62;47.82
35758;BME280;21879;50.110;18.900;2023-04-05T21:34:28;99058.67;;;2.50;47.76
35758;BME280;21879;50.110;18.900;2023-04-05T21:44:54;99059.69;;;2.56;47.75
35758;BME280;21879;50.110;18.900;2023-04-05T21:55:20;99058.67;;;2.32;47.64
35758;BME280;21879;50.110;18.900;2023-04-05T22:05:46;99057.88;;;2.34;47.74
35758;BME280;21879;50.110;18.900;2023-04-05T22:16:12;99057.85;;;2.27;48.24
35758;BME280;21879;50.110;18.900;2023-04-05T22:26:40;99060.02;;;2.13;48.87
35758;BME280;21879;50.110;18.900;2023-04-05T22:37:06;99064.27;;;2.00;49.21
35758;BME280;21879;50.110;18.900;2023-04-05T22:47:32;99056.42;;;1.97;49.28
35758;BME280;21879;50.110;18.900;2023-04-05T22:57:58;99060.59;;;1.76;49.82
35758;BME280;21879;50.110;18.900;2023-04-05T23:08:24;99057.66;;;1.59;49.79
35758;BME280;21879;50.110;18.900;2023-04-05T23:18:50;99055.98;;;1.54;50.35
35758;BME280;21879;50.110;18.900;2023-04-05T23:29:16;99050.24;;;1.41;49.93
35758;BME280;21879;50.110;18.900;2023-04-05T23:39:43;99046.61;;;1.30;50.30
35758;BME280;21879;50.110;18.900;2023-04-05T23:50:10;99044.02;;;1.39;50.69
